createdAt,value
2023-02-17T00:01:23.813Z,6.52
2023-02-17T00:03:53.711Z,6.49
2023-02-17T00:06:23.999Z,6.51
2023-02-17T00:08:52.470Z,6.44
2023-02-17T00:11:22.280Z,6.43
2023-02-17T00:13:50.079Z,6.40
2023-02-17T00:16:20.583Z,6.37
2023-02-17T00:18:49.272Z,6.38
2023-02-17T00:21:18.760Z,6.38
2023-02-17T00:23:48.201Z,6.38
2023-02-17T00:26:17.568Z,6.41
2023-02-17T00:28:47.775Z,6.41
2023-02-17T00:31:19.833Z,6.44
2023-02-17T00:33:47.841Z,6.41
2023-02-17T00:36:18.595Z,6.44
2023-02-17T00:38:48.916Z,6.44
2023-02-17T00:41:16.824Z,6.51
2023-02-17T00:43:46.540Z,6.54
2023-02-17T00:46:17.641Z,6.51
2023-02-17T00:48:46.418Z,6.50
2023-02-17T00:51:16.765Z,6.52
2023-02-17T00:53:44.855Z,6.53
2023-02-17T00:56:13.878Z,6.52
2023-02-17T00:58:42.423Z,6.48
2023-02-17T01:01:12.624Z,6.53
2023-02-17T01:03:42.477Z,6.54
2023-02-17T01:06:17.717Z,6.52
2023-02-17T01:08:45.549Z,6.53
2023-02-17T01:11:18.502Z,6.51
2023-02-17T01:13:46.378Z,6.54
2023-02-17T01:16:21.010Z,6.62
2023-02-17T01:18:49.739Z,6.63
2023-02-17T01:21:21.703Z,6.70
2023-02-17T01:23:50.163Z,6.69
2023-02-17T01:26:19.833Z,6.69
2023-02-17T01:28:48.512Z,6.70
2023-02-17T01:31:20.300Z,6.70
2023-02-17T01:33:50.148Z,6.73
2023-02-17T01:36:20.656Z,6.75
2023-02-17T01:38:49.182Z,6.72
2023-02-17T01:41:21.303Z,6.71
2023-02-17T01:44:14.068Z,6.70
2023-02-17T01:46:43.344Z,6.76
2023-02-17T01:49:32.535Z,6.78
2023-02-17T01:52:05.969Z,6.77
2023-02-17T01:54:39.076Z,6.84
2023-02-17T01:57:11.821Z,6.81
2023-02-17T01:59:41.365Z,6.80
2023-02-17T02:02:09.754Z,6.81
2023-02-17T02:04:42.164Z,6.82
2023-02-17T02:07:15.493Z,6.84
2023-02-17T02:09:49.783Z,6.81
2023-02-17T02:12:21.203Z,6.77
2023-02-17T02:14:50.343Z,6.77
2023-02-17T02:17:30.528Z,6.74
2023-02-17T02:20:29.558Z,6.71
2023-02-17T02:23:30.274Z,6.71
2023-02-17T02:26:19.460Z,6.69
2023-02-17T02:29:08.806Z,6.71
2023-02-17T02:31:47.296Z,6.70
2023-02-17T02:34:21.925Z,6.70
2023-02-17T02:36:57.708Z,6.72
2023-02-17T02:39:30.908Z,6.76
2023-02-17T02:42:03.244Z,6.78
2023-02-17T02:44:31.675Z,6.79
2023-02-17T02:47:00.827Z,6.80
2023-02-17T02:49:32.843Z,6.81
2023-02-17T02:52:11.543Z,6.82
2023-02-17T02:54:48.050Z,6.82
2023-02-17T02:57:39.191Z,6.77
2023-02-17T03:00:16.613Z,6.79
2023-02-17T03:02:52.383Z,6.75
2023-02-17T03:05:29.874Z,6.73
2023-02-17T03:08:03.223Z,6.73
2023-02-17T03:10:31.538Z,6.75
2023-02-17T03:12:59.657Z,6.74
2023-02-17T03:15:31.185Z,6.75
2023-02-17T03:18:02.220Z,6.72
2023-02-17T03:20:35.378Z,6.75
2023-02-17T03:23:05.512Z,6.71
2023-02-17T03:25:33.617Z,6.74
2023-02-17T03:28:01.634Z,6.75
2023-02-17T03:30:29.785Z,6.77
2023-02-17T03:32:57.702Z,6.80
2023-02-17T03:35:25.528Z,6.75
2023-02-17T03:37:54.773Z,6.75
2023-02-17T03:40:22.809Z,6.72
2023-02-17T03:42:50.661Z,6.69
2023-02-17T03:45:18.739Z,6.70
2023-02-17T03:47:46.600Z,6.67
2023-02-17T03:50:14.427Z,6.59
2023-02-17T03:52:42.330Z,6.60
2023-02-17T03:55:11.627Z,6.60
2023-02-17T03:57:39.409Z,6.59
2023-02-17T04:00:09.390Z,6.61
2023-02-17T04:02:44.293Z,6.59
2023-02-17T04:05:12.918Z,6.61
2023-02-17T04:07:41.264Z,6.63
2023-02-17T04:10:11.488Z,6.64
2023-02-17T04:12:39.334Z,6.63
2023-02-17T04:15:07.914Z,6.66
2023-02-17T04:17:37.658Z,6.65
2023-02-17T04:20:08.795Z,6.64
2023-02-17T04:22:36.748Z,6.66
2023-02-17T04:25:05.056Z,6.68
2023-02-17T04:27:34.271Z,6.72
2023-02-17T04:30:04.637Z,6.77
2023-02-17T04:32:32.531Z,6.76
2023-02-17T04:35:00.435Z,6.78
2023-02-17T04:37:28.354Z,6.81
2023-02-17T04:39:57.056Z,6.84
2023-02-17T04:42:25.030Z,6.84
2023-02-17T04:44:54.262Z,6.80
2023-02-17T04:47:22.949Z,6.87
2023-02-17T04:49:50.817Z,6.85
2023-02-17T04:52:18.672Z,6.89
2023-02-17T04:54:46.519Z,6.93
2023-02-17T04:57:14.470Z,6.91
2023-02-17T04:59:42.406Z,6.93
2023-02-17T05:02:11.616Z,6.94
2023-02-17T05:04:39.557Z,6.98
2023-02-17T05:07:07.447Z,6.99
2023-02-17T05:09:35.299Z,6.98
2023-02-17T05:12:05.573Z,7.01
2023-02-17T05:14:33.418Z,7.03
2023-02-17T05:17:01.307Z,7.01
2023-02-17T05:19:30.576Z,6.99
2023-02-17T05:21:58.444Z,6.97
2023-02-17T05:24:26.315Z,6.97
2023-02-17T05:26:54.653Z,6.97
2023-02-17T05:29:23.335Z,6.99
2023-02-17T05:31:51.288Z,6.99
2023-02-17T05:34:19.159Z,6.97
2023-02-17T05:36:48.407Z,7.00
2023-02-17T05:39:16.479Z,7.02
2023-02-17T05:41:44.296Z,7.04
2023-02-17T05:44:12.168Z,7.04
2023-02-17T05:46:40.211Z,7.06
2023-02-17T05:49:08.619Z,7.10
2023-02-17T05:51:36.514Z,7.11
2023-02-17T05:54:06.128Z,7.16
2023-02-17T05:56:34.323Z,7.20
2023-02-17T05:59:02.202Z,7.22
2023-02-17T06:01:30.531Z,7.25
2023-02-17T06:03:58.723Z,7.26
2023-02-17T06:06:26.751Z,7.29
2023-02-17T06:08:54.602Z,7.29
2023-02-17T06:11:24.552Z,7.30
2023-02-17T06:13:52.358Z,7.32
2023-02-17T06:16:20.750Z,7.34
2023-02-17T06:18:48.720Z,7.31
2023-02-17T06:21:16.608Z,7.31
2023-02-17T06:23:44.497Z,7.31
2023-02-17T06:26:12.360Z,7.32
2023-02-17T06:28:41.581Z,7.32
2023-02-17T06:31:09.734Z,7.32
2023-02-17T06:33:37.882Z,7.32
2023-02-17T06:36:06.869Z,7.32
2023-02-17T06:38:34.982Z,7.35
2023-02-17T06:41:03.076Z,7.34
2023-02-17T06:43:31.124Z,7.36
2023-02-17T06:46:00.438Z,7.37
2023-02-17T06:48:28.500Z,7.36
2023-02-17T06:50:56.417Z,7.39
2023-02-17T06:53:24.480Z,7.40
2023-02-17T06:55:52.956Z,7.40
2023-02-17T06:58:21.190Z,7.40
2023-02-17T07:00:49.153Z,7.41
2023-02-17T07:03:18.505Z,7.43
2023-02-17T07:05:46.443Z,7.43
2023-02-17T07:08:14.566Z,7.45
2023-02-17T07:10:42.615Z,7.47
2023-02-17T07:13:10.544Z,7.47
2023-02-17T07:15:38.482Z,7.46
2023-02-17T07:18:06.757Z,7.46
2023-02-17T07:20:38.192Z,7.48
2023-02-17T07:23:07.164Z,7.49
2023-02-17T07:25:35.089Z,7.50
2023-02-17T07:28:03.051Z,7.52
2023-02-17T07:30:31.237Z,7.56
2023-02-17T07:32:59.526Z,7.56
2023-02-17T07:35:27.832Z,7.55
2023-02-17T07:37:59.659Z,7.58
2023-02-17T07:40:28.907Z,7.58
2023-02-17T07:42:58.391Z,7.63
2023-02-17T07:45:26.588Z,7.62
2023-02-17T07:47:54.856Z,7.65
2023-02-17T07:50:23.486Z,7.67
2023-02-17T07:52:52.092Z,7.69
2023-02-17T07:55:21.349Z,7.68
2023-02-17T07:57:49.266Z,7.71
2023-02-17T08:00:18.435Z,7.72
2023-02-17T08:02:46.331Z,7.74
2023-02-17T08:05:14.261Z,7.76
2023-02-17T08:07:42.234Z,7.78
2023-02-17T08:10:31.087Z,7.85
2023-02-17T08:13:18.010Z,7.83
2023-02-17T08:15:45.847Z,7.88
2023-02-17T08:18:14.158Z,7.93
2023-02-17T08:20:42.046Z,7.96
2023-02-17T08:23:10.012Z,7.98
2023-02-17T08:25:38.428Z,8.01
2023-02-17T08:28:08.302Z,8.03
2023-02-17T08:30:38.786Z,8.07
2023-02-17T08:33:06.922Z,8.09
2023-02-17T08:35:34.803Z,8.12
2023-02-17T08:38:02.724Z,8.17
2023-02-17T08:40:30.700Z,8.20
2023-02-17T08:42:58.534Z,8.26
2023-02-17T08:45:27.817Z,8.31
2023-02-17T08:47:56.062Z,8.36
2023-02-17T08:50:24.087Z,8.38
2023-02-17T08:52:52.104Z,8.40
2023-02-17T08:55:22.911Z,8.40
2023-02-17T08:57:50.915Z,8.39
2023-02-17T09:00:19.632Z,8.40
2023-02-17T09:02:48.931Z,8.39
2023-02-17T09:05:16.777Z,8.41
2023-02-17T09:07:44.844Z,8.40
2023-02-17T09:10:13.956Z,8.42
2023-02-17T09:12:42.224Z,8.43
2023-02-17T09:15:10.706Z,8.45
2023-02-17T09:17:41.050Z,8.46
2023-02-17T09:20:24.095Z,8.50
2023-02-17T09:22:52.921Z,8.53
2023-02-17T09:25:20.966Z,8.56
2023-02-17T09:27:48.867Z,8.59
2023-02-17T09:30:16.920Z,8.61
2023-02-17T09:32:45.352Z,8.64
2023-02-17T09:35:16.106Z,8.66
2023-02-17T09:37:44.388Z,8.70
2023-02-17T09:40:18.635Z,8.76
2023-02-17T09:42:46.851Z,8.83
2023-02-17T09:45:20.426Z,8.88
2023-02-17T09:47:50.886Z,8.92
2023-02-17T09:50:24.830Z,8.94
2023-02-17T09:52:58.159Z,8.98
2023-02-17T09:55:30.072Z,9.05
2023-02-17T09:58:00.955Z,9.14
2023-02-17T10:00:33.758Z,9.25
2023-02-17T10:03:08.475Z,9.32
2023-02-17T10:05:44.644Z,9.42
2023-02-17T10:08:18.475Z,9.53
2023-02-17T10:10:51.879Z,9.59
2023-02-17T10:13:23.121Z,9.61
2023-02-17T10:15:53.625Z,9.60
2023-02-17T10:18:27.556Z,9.59
2023-02-17T10:21:04.877Z,9.59
2023-02-17T10:23:32.920Z,9.62
2023-02-17T10:26:19.693Z,9.68
2023-02-17T10:28:53.331Z,9.73
2023-02-17T10:31:39.197Z,9.84
2023-02-17T10:34:14.805Z,9.97
2023-02-17T10:36:52.938Z,10.07
2023-02-17T10:39:36.493Z,10.21
2023-02-17T10:42:05.999Z,10.23
2023-02-17T10:44:37.897Z,10.30
2023-02-17T10:47:06.777Z,10.36
2023-02-17T10:49:39.529Z,10.40
2023-02-17T10:52:15.654Z,10.42
2023-02-17T10:54:48.056Z,10.54
2023-02-17T10:57:18.254Z,10.64
2023-02-17T10:59:48.196Z,10.67
2023-02-17T11:02:20.318Z,10.72
2023-02-17T11:04:50.882Z,10.82
2023-02-17T11:07:27.350Z,10.93
2023-02-17T11:10:00.465Z,11.00
2023-02-17T11:12:30.519Z,11.11
2023-02-17T11:14:58.877Z,11.18
2023-02-17T11:17:30.542Z,11.22
2023-02-17T11:20:03.992Z,11.23
2023-02-17T11:22:37.062Z,11.21
2023-02-17T11:25:08.851Z,11.16
2023-02-17T11:27:36.887Z,11.19
2023-02-17T11:30:10.938Z,11.14
2023-02-17T11:32:39.334Z,11.12
2023-02-17T11:35:23.587Z,11.12
2023-02-17T11:37:56.350Z,11.20
2023-02-17T11:40:27.025Z,11.18
2023-02-17T11:42:59.813Z,11.14
2023-02-17T11:45:33.514Z,11.14
2023-02-17T11:48:24.572Z,11.10
2023-02-17T11:50:58.876Z,11.07
2023-02-17T11:53:47.982Z,11.05
2023-02-17T11:56:19.591Z,11.04
2023-02-17T11:59:03.490Z,11.03
2023-02-17T12:01:49.563Z,11.05
2023-02-17T12:04:27.477Z,11.05
2023-02-17T12:07:21.355Z,11.06
2023-02-17T12:10:01.756Z,11.06
2023-02-17T12:12:44.893Z,11.05
2023-02-17T12:15:28.441Z,11.07
2023-02-17T12:18:09.666Z,11.08
2023-02-17T12:20:49.793Z,11.07
2023-02-17T12:23:49.935Z,11.08
2023-02-17T12:26:32.646Z,11.08
2023-02-17T12:29:13.537Z,11.05
2023-02-17T12:31:57.534Z,11.05
2023-02-17T12:34:32.845Z,11.04
2023-02-17T12:37:02.022Z,11.05
2023-02-17T12:39:34.529Z,11.10
2023-02-17T12:42:08.541Z,11.14
2023-02-17T12:44:41.229Z,11.19
2023-02-17T12:47:16.014Z,11.24
2023-02-17T12:49:50.759Z,11.25
2023-02-17T12:52:20.728Z,11.28
2023-02-17T12:54:54.110Z,11.27
2023-02-17T12:57:26.085Z,11.28
2023-02-17T12:59:54.940Z,11.31
2023-02-17T13:02:24.214Z,11.34
2023-02-17T13:04:54.428Z,11.34
2023-02-17T13:07:42.670Z,11.37
2023-02-17T13:10:23.031Z,11.34
2023-02-17T13:13:01.764Z,11.35
2023-02-17T13:15:33.711Z,11.32
2023-02-17T13:18:03.500Z,11.30
2023-02-17T13:20:56.129Z,11.30
2023-02-17T13:23:39.197Z,11.29
2023-02-17T13:26:24.508Z,11.27
2023-02-17T13:28:55.871Z,11.27
2023-02-17T13:31:25.812Z,11.31
2023-02-17T13:33:55.726Z,11.33
2023-02-17T13:36:36.669Z,11.29
2023-02-17T13:39:08.584Z,11.33
2023-02-17T13:41:46.868Z,11.31
2023-02-17T13:44:31.712Z,11.32
2023-02-17T13:47:02.076Z,11.36
2023-02-17T13:49:33.978Z,11.35
2023-02-17T13:52:10.516Z,11.40
2023-02-17T13:54:38.438Z,11.42
2023-02-17T13:57:06.418Z,11.45
2023-02-17T13:59:38.114Z,11.47
2023-02-17T14:02:35.109Z,11.52
2023-02-17T14:05:17.892Z,11.52
2023-02-17T14:08:01.067Z,11.52
2023-02-17T14:10:29.213Z,11.51
2023-02-17T14:12:57.936Z,11.50
2023-02-17T14:15:29.213Z,11.54
2023-02-17T14:17:58.029Z,11.59
2023-02-17T14:20:31.903Z,11.64
2023-02-17T14:23:05.768Z,11.60
2023-02-17T14:25:35.861Z,11.63
2023-02-17T14:28:05.009Z,11.63
2023-02-17T14:30:36.702Z,11.54
2023-02-17T14:33:09.309Z,11.50
2023-02-17T14:35:39.524Z,11.43
2023-02-17T14:38:09.783Z,11.42
2023-02-17T14:40:40.024Z,11.40
2023-02-17T14:43:08.046Z,11.41
2023-02-17T14:45:37.242Z,11.32
2023-02-17T14:48:05.551Z,11.29
2023-02-17T14:50:33.878Z,11.25
2023-02-17T14:53:01.756Z,11.18
2023-02-17T14:55:35.958Z,11.18
2023-02-17T14:58:04.988Z,11.18
2023-02-17T15:00:33.023Z,11.19
2023-02-17T15:03:02.237Z,11.16
2023-02-17T15:05:30.134Z,11.17
2023-02-17T15:08:01.302Z,11.17
2023-02-17T15:10:30.387Z,11.12
2023-02-17T15:12:58.416Z,11.18
2023-02-17T15:15:26.294Z,11.16
2023-02-17T15:17:54.150Z,11.14
2023-02-17T15:20:23.368Z,11.08
2023-02-17T15:22:52.890Z,11.08
2023-02-17T15:25:23.199Z,11.05
2023-02-17T15:27:51.460Z,10.97
2023-02-17T15:30:20.232Z,10.92
2023-02-17T15:32:48.724Z,10.88
2023-02-17T15:35:18.930Z,10.87
2023-02-17T15:37:48.245Z,10.87
2023-02-17T15:40:18.174Z,10.81
2023-02-17T15:42:50.175Z,10.79
2023-02-17T15:45:20.367Z,10.76
2023-02-17T15:47:49.292Z,10.76
2023-02-17T15:50:20.644Z,10.74
2023-02-17T15:52:51.366Z,10.72
2023-02-17T15:55:20.249Z,10.72
2023-02-17T15:57:50.870Z,10.70
2023-02-17T16:00:24.464Z,10.70
2023-02-17T16:02:52.820Z,10.69
2023-02-17T16:05:23.158Z,10.67
2023-02-17T16:07:52.676Z,10.66
2023-02-17T16:10:25.048Z,10.66
2023-02-17T16:12:54.467Z,10.64
2023-02-17T16:15:24.470Z,10.62
2023-02-17T16:17:52.891Z,10.62
2023-02-17T16:20:24.320Z,10.60
2023-02-17T16:22:53.581Z,10.58
2023-02-17T16:25:23.553Z,10.59
2023-02-17T16:27:53.074Z,10.55
2023-02-17T16:30:23.975Z,10.54
2023-02-17T16:32:53.923Z,10.51
2023-02-17T16:35:25.593Z,10.51
2023-02-17T16:37:57.778Z,10.50
2023-02-17T16:40:28.106Z,10.49
2023-02-17T16:42:56.681Z,10.48
2023-02-17T16:45:26.198Z,10.47
2023-02-17T16:47:55.886Z,10.47
2023-02-17T16:50:26.573Z,10.45
2023-02-17T16:52:57.693Z,10.46
2023-02-17T16:55:29.161Z,10.41
2023-02-17T16:57:57.373Z,10.41
2023-02-17T17:00:29.682Z,10.42
2023-02-17T17:02:58.431Z,10.39
2023-02-17T17:05:29.006Z,10.39
2023-02-17T17:07:58.414Z,10.39
2023-02-17T17:10:29.155Z,10.39
2023-02-17T17:12:57.801Z,10.39
2023-02-17T17:15:25.906Z,10.38
2023-02-17T17:17:58.055Z,10.37
2023-02-17T17:20:31.014Z,10.35
2023-02-17T17:23:01.169Z,10.36
2023-02-17T17:25:29.789Z,10.34
2023-02-17T17:27:58.577Z,10.33
2023-02-17T17:30:29.569Z,10.33
2023-02-17T17:32:57.444Z,10.32
2023-02-17T17:35:25.519Z,10.32
2023-02-17T17:37:53.342Z,10.30
2023-02-17T17:40:24.319Z,10.30
2023-02-17T17:42:52.678Z,10.30
2023-02-17T17:45:20.859Z,10.28
2023-02-17T17:47:48.828Z,10.28
2023-02-17T17:50:18.911Z,10.26
2023-02-17T17:52:47.612Z,10.25
2023-02-17T17:55:16.462Z,10.25
2023-02-17T17:57:45.744Z,10.24
2023-02-17T18:00:16.746Z,10.24
2023-02-17T18:02:44.632Z,10.25
2023-02-17T18:05:13.033Z,10.24
2023-02-17T18:07:42.301Z,10.26
2023-02-17T18:10:13.870Z,10.25
2023-02-17T18:12:43.128Z,10.24
2023-02-17T18:15:13.113Z,10.25
2023-02-17T18:17:43.024Z,10.28
2023-02-17T18:20:12.539Z,10.26
2023-02-17T18:22:40.821Z,10.28
2023-02-17T18:25:09.308Z,10.26
2023-02-17T18:27:42.771Z,10.28
2023-02-17T18:30:19.123Z,10.29
2023-02-17T18:32:47.636Z,10.30
2023-02-17T18:35:15.896Z,10.27
2023-02-17T18:37:45.045Z,10.29
2023-02-17T18:40:15.939Z,10.28
2023-02-17T18:42:45.465Z,10.26
2023-02-17T18:45:16.436Z,10.25
2023-02-17T18:47:45.496Z,10.28
2023-02-17T18:50:15.000Z,10.26
2023-02-17T18:52:44.215Z,10.28
2023-02-17T18:55:12.687Z,10.28
2023-02-17T18:57:40.906Z,10.29
2023-02-17T19:00:10.787Z,10.27
2023-02-17T19:02:41.349Z,10.27
2023-02-17T19:05:12.458Z,10.28
2023-02-17T19:07:40.412Z,10.27
2023-02-17T19:10:09.699Z,10.29
2023-02-17T19:12:37.965Z,10.28
2023-02-17T19:15:06.222Z,10.30
2023-02-17T19:17:34.212Z,10.30
2023-02-17T19:20:03.683Z,10.29
2023-02-17T19:22:31.613Z,10.29
2023-02-17T19:24:59.473Z,10.29
2023-02-17T19:27:27.375Z,10.27
2023-02-17T19:29:55.328Z,10.26
2023-02-17T19:32:23.154Z,10.25
2023-02-17T19:34:51.096Z,10.25
2023-02-17T19:37:20.271Z,10.23
2023-02-17T19:39:48.085Z,10.23
2023-02-17T19:42:16.013Z,10.21
2023-02-17T19:44:43.920Z,10.21
2023-02-17T19:47:11.798Z,10.19
2023-02-17T19:49:39.689Z,10.19
2023-02-17T19:52:07.799Z,10.18
2023-02-17T19:54:38.015Z,10.15
2023-02-17T19:57:05.883Z,10.14
2023-02-17T19:59:34.475Z,10.13
2023-02-17T20:02:02.977Z,10.12
2023-02-17T20:04:31.485Z,10.11
2023-02-17T20:06:59.401Z,10.13
2023-02-17T20:09:27.312Z,10.14
2023-02-17T20:11:56.776Z,10.15
2023-02-17T20:14:24.982Z,10.14
2023-02-17T20:16:55.601Z,10.13
2023-02-17T20:19:24.077Z,10.10
2023-02-17T20:21:52.618Z,10.09
2023-02-17T20:24:20.991Z,10.07
2023-02-17T20:26:50.912Z,10.04
2023-02-17T20:29:20.448Z,10.06
2023-02-17T20:31:48.486Z,10.05
2023-02-17T20:34:28.576Z,10.07
2023-02-17T20:36:57.336Z,10.04
2023-02-17T20:39:26.313Z,10.03
2023-02-17T20:41:54.751Z,10.03
2023-02-17T20:44:27.733Z,10.03
2023-02-17T20:46:57.044Z,10.03
2023-02-17T20:49:25.694Z,10.03
2023-02-17T20:51:53.741Z,10.02
2023-02-17T20:54:21.683Z,10.00
2023-02-17T20:56:49.918Z,10.01
2023-02-17T20:59:17.798Z,10.00
2023-02-17T21:01:47.190Z,9.99
2023-02-17T21:04:15.314Z,9.97
2023-02-17T21:06:45.649Z,9.98
2023-02-17T21:09:17.028Z,9.98
2023-02-17T21:11:45.659Z,9.97
2023-02-17T21:14:14.324Z,9.97
2023-02-17T21:16:42.683Z,9.96
2023-02-17T21:19:11.872Z,9.98
2023-02-17T21:21:40.944Z,9.96
2023-02-17T21:24:08.974Z,9.95
2023-02-17T21:26:37.044Z,9.96
2023-02-17T21:29:05.274Z,9.96
2023-02-17T21:31:33.371Z,9.94
2023-02-17T21:34:01.404Z,9.94
2023-02-17T21:36:30.935Z,9.91
2023-02-17T21:38:59.118Z,9.93
2023-02-17T21:41:29.802Z,9.93
2023-02-17T21:44:15.228Z,9.93
2023-02-17T21:46:44.084Z,9.92
2023-02-17T21:49:13.045Z,9.91
2023-02-17T21:51:42.543Z,9.93
2023-02-17T21:54:11.294Z,9.92
2023-02-17T21:56:39.628Z,9.94
2023-02-17T21:59:08.079Z,9.94
2023-02-17T22:01:36.000Z,9.97
2023-02-17T22:04:04.307Z,9.95
2023-02-17T22:06:37.746Z,9.96
2023-02-17T22:09:08.889Z,9.96
2023-02-17T22:11:39.531Z,9.97
2023-02-17T22:14:10.277Z,9.95
2023-02-17T22:16:38.229Z,9.97
2023-02-17T22:19:08.169Z,9.96
2023-02-17T22:21:36.147Z,9.96
2023-02-17T22:24:04.367Z,9.95
2023-02-17T22:26:33.602Z,9.94
2023-02-17T22:29:01.578Z,9.94
2023-02-17T22:31:31.782Z,9.92
2023-02-17T22:34:01.725Z,9.93
2023-02-17T22:36:33.310Z,9.93
2023-02-17T22:39:01.830Z,9.92
2023-02-17T22:41:29.980Z,9.92
2023-02-17T22:44:00.687Z,9.92
2023-02-17T22:46:28.882Z,9.91
2023-02-17T22:48:58.004Z,9.89
2023-02-17T22:51:28.024Z,9.90
2023-02-17T22:53:55.882Z,9.89
2023-02-17T22:56:24.972Z,9.89
2023-02-17T22:58:56.476Z,9.88
2023-02-17T23:01:26.295Z,9.88
2023-02-17T23:03:54.998Z,9.88
2023-02-17T23:06:25.500Z,9.88
2023-02-17T23:08:54.038Z,9.88
2023-02-17T23:11:44.398Z,9.86
2023-02-17T23:14:13.497Z,9.87
2023-02-17T23:16:42.808Z,9.87
2023-02-17T23:19:12.477Z,9.86
2023-02-17T23:21:44.428Z,9.85
2023-02-17T23:24:12.370Z,9.88
2023-02-17T23:26:40.413Z,9.86
2023-02-17T23:29:09.561Z,9.87
2023-02-17T23:31:38.855Z,9.86
2023-02-17T23:34:08.543Z,9.86
2023-02-17T23:36:39.028Z,9.85
2023-02-17T23:39:07.169Z,9.86
2023-02-17T23:41:36.654Z,9.85
2023-02-17T23:44:06.026Z,9.84
2023-02-17T23:46:33.948Z,9.82
2023-02-17T23:49:02.028Z,9.81
2023-02-17T23:51:31.395Z,9.80
2023-02-17T23:53:59.574Z,9.80
2023-02-17T23:56:30.498Z,9.80
2023-02-17T23:58:58.790Z,9.77
